sensor_id;sensor_type;location;lat;lon;timestamp;pressure;altitude;pressure_sealevel;temperature
20730;BMP280;10526;50.850;12.928;2023-03-21T00:04:06;98047.69;;;8.80
20730;BMP280;10526;50.850;12.928;2023-03-21T00:08:28;98041.22;;;8.78
20730;BMP280;10526;50.850;12.928;2023-03-21T00:12:50;98032.13;;;8.79
20730;BMP280;10526;50.850;12.928;2023-03-21T00:17:15;98036.34;;;8.76
20730;BMP280;10526;50.850;12.928;2023-03-21T00:21:37;98020.75;;;8.71
20730;BMP280;10526;50.850;12.928;2023-03-21T00:26:23;98031.34;;;8.64
20730;BMP280;10526;50.850;12.928;2023-03-21T00:30:45;98025.28;;;8.56
20730;BMP280;10526;50.850;12.928;2023-03-21T00:35:07;98022.97;;;8.47
20730;BMP280;10526;50.850;12.928;2023-03-21T00:39:49;98026.75;;;8.39
20730;BMP280;10526;50.850;12.928;2023-03-21T00:44:12;98021.44;;;8.32
20730;BMP280;10526;50.850;12.928;2023-03-21T00:48:36;98021.84;;;8.31
20730;BMP280;10526;50.850;12.928;2023-03-21T00:53:01;98023.72;;;8.30
20730;BMP280;10526;50.850;12.928;2023-03-21T00:57:23;98013.88;;;8.31
20730;BMP280;10526;50.850;12.928;2023-03-21T01:01:59;98017.66;;;8.30
20730;BMP280;10526;50.850;12.928;2023-03-21T01:06:21;98015.75;;;8.30
20730;BMP280;10526;50.850;12.928;2023-03-21T01:10:47;98009.31;;;8.24
20730;BMP280;10526;50.850;12.928;2023-03-21T01:15:09;98002.09;;;8.25
20730;BMP280;10526;50.850;12.928;2023-03-21T01:19:32;98003.63;;;8.22
20730;BMP280;10526;50.850;12.928;2023-03-21T01:24:11;98010.41;;;8.16
20730;BMP280;10526;50.850;12.928;2023-03-21T01:28:35;98009.28;;;8.13
20730;BMP280;10526;50.850;12.928;2023-03-21T01:32:57;98013.81;;;8.13
20730;BMP280;10526;50.850;12.928;2023-03-21T01:37:19;98004.69;;;8.07
20730;BMP280;10526;50.850;12.928;2023-03-21T01:41:43;98006.97;;;8.08
20730;BMP280;10526;50.850;12.928;2023-03-21T01:46:40;98002.06;;;8.07
20730;BMP280;10526;50.850;12.928;2023-03-21T01:51:49;98006.19;;;8.04
20730;BMP280;10526;50.850;12.928;2023-03-21T01:56:32;98012.25;;;8.01
20730;BMP280;10526;50.850;12.928;2023-03-21T02:01:00;98013.03;;;8.02
20730;BMP280;10526;50.850;12.928;2023-03-21T02:05:40;98006.19;;;8.04
20730;BMP280;10526;50.850;12.928;2023-03-21T02:10:09;97999.38;;;8.00
20730;BMP280;10526;50.850;12.928;2023-03-21T02:14:37;97995.19;;;7.95
20730;BMP280;10526;50.850;12.928;2023-03-21T02:19:31;97996.31;;;7.90
20730;BMP280;10526;50.850;12.928;2023-03-21T02:40:14;97972.81;;;7.85
20730;BMP280;10526;50.850;12.928;2023-03-21T02:49:34;97974.28;;;7.79
20730;BMP280;10526;50.850;12.928;2023-03-21T02:54:14;97975.84;;;7.80
20730;BMP280;10526;50.850;12.928;2023-03-21T02:58:58;97973.19;;;7.80
20730;BMP280;10526;50.850;12.928;2023-03-21T03:03:22;97967.47;;;7.78
20730;BMP280;10526;50.850;12.928;2023-03-21T03:18:59;97973.50;;;7.75
20730;BMP280;10526;50.850;12.928;2023-03-21T03:23:52;97972.72;;;7.71
20730;BMP280;10526;50.850;12.928;2023-03-21T03:28:19;97975.03;;;7.69
20730;BMP280;10526;50.850;12.928;2023-03-21T03:32:49;97976.53;;;7.70
20730;BMP280;10526;50.850;12.928;2023-03-21T03:37:19;97971.97;;;7.67
20730;BMP280;10526;50.850;12.928;2023-03-21T03:42:01;97980.28;;;7.62
20730;BMP280;10526;50.850;12.928;2023-03-21T03:46:58;97987.06;;;7.56
20730;BMP280;10526;50.850;12.928;2023-03-21T03:51:35;97988.53;;;7.50
20730;BMP280;10526;50.850;12.928;2023-03-21T03:56:09;97984.38;;;7.45
20730;BMP280;10526;50.850;12.928;2023-03-21T04:00:34;97987.00;;;7.42
20730;BMP280;10526;50.850;12.928;2023-03-21T04:04:56;97984.69;;;7.40
20730;BMP280;10526;50.850;12.928;2023-03-21T04:09:18;97986.22;;;7.34
20730;BMP280;10526;50.850;12.928;2023-03-21T04:13:52;97983.91;;;7.32
20730;BMP280;10526;50.850;12.928;2023-03-21T04:18:16;97988.41;;;7.28
20730;BMP280;10526;50.850;12.928;2023-03-21T04:22:38;97988.03;;;7.26
20730;BMP280;10526;50.850;12.928;2023-03-21T04:27:01;97990.31;;;7.28
20730;BMP280;10526;50.850;12.928;2023-03-21T04:31:34;97991.88;;;7.39
20730;BMP280;10526;50.850;12.928;2023-03-21T04:36:04;97991.50;;;7.37
20730;BMP280;10526;50.850;12.928;2023-03-21T04:40:27;97988.41;;;7.28
20730;BMP280;10526;50.850;12.928;2023-03-21T04:44:49;97989.91;;;7.22
20730;BMP280;10526;50.850;12.928;2023-03-21T04:49:12;97984.53;;;7.11
20730;BMP280;10526;50.850;12.928;2023-03-21T04:53:36;97982.53;;;7.01
20730;BMP280;10526;50.850;12.928;2023-03-21T04:57:59;97982.19;;;6.99
20730;BMP280;10526;50.850;12.928;2023-03-21T05:02:22;97972.31;;;6.96
20730;BMP280;10526;50.850;12.928;2023-03-21T05:06:45;97974.50;;;6.87
20730;BMP280;10526;50.850;12.928;2023-03-21T05:11:10;97970.22;;;6.75
20730;BMP280;10526;50.850;12.928;2023-03-21T05:15:32;97967.47;;;6.61
20730;BMP280;10526;50.850;12.928;2023-03-21T05:19:54;97959.50;;;6.54
20730;BMP280;10526;50.850;12.928;2023-03-21T05:24:20;97957.91;;;6.46
20730;BMP280;10526;50.850;12.928;2023-03-21T05:28:43;97958.63;;;6.43
20730;BMP280;10526;50.850;12.928;2023-03-21T05:33:09;97956.72;;;6.40
20730;BMP280;10526;50.850;12.928;2023-03-21T05:37:31;97962.41;;;6.42
20730;BMP280;10526;50.850;12.928;2023-03-21T05:41:53;97962.09;;;6.50
20730;BMP280;10526;50.850;12.928;2023-03-21T05:46:15;97958.03;;;6.60
20730;BMP280;10526;50.850;12.928;2023-03-21T05:50:38;97955.88;;;6.73
20730;BMP280;10526;50.850;12.928;2023-03-21T05:55:07;97952.59;;;6.90
20730;BMP280;10526;50.850;12.928;2023-03-21T05:59:30;97963.38;;;7.11
20730;BMP280;10526;50.850;12.928;2023-03-21T06:03:52;97957.41;;;7.32
20730;BMP280;10526;50.850;12.928;2023-03-21T06:08:16;97965.81;;;7.42
20730;BMP280;10526;50.850;12.928;2023-03-21T06:12:40;97974.84;;;7.40
20730;BMP280;10526;50.850;12.928;2023-03-21T06:17:36;97968.84;;;7.44
20730;BMP280;10526;50.850;12.928;2023-03-21T06:22:02;97976.47;;;7.59
20730;BMP280;10526;50.850;12.928;2023-03-21T06:26:26;97973.91;;;7.70
20730;BMP280;10526;50.850;12.928;2023-03-21T06:30:48;97976.97;;;7.93
20730;BMP280;10526;50.850;12.928;2023-03-21T06:35:15;97982.78;;;8.24
20730;BMP280;10526;50.850;12.928;2023-03-21T06:39:37;97983.16;;;8.30
20730;BMP280;10526;50.850;12.928;2023-03-21T06:43:59;97980.44;;;8.05
20730;BMP280;10526;50.850;12.928;2023-03-21T06:48:24;97983.50;;;8.07
20730;BMP280;10526;50.850;12.928;2023-03-21T06:52:48;97983.13;;;8.15
20730;BMP280;10526;50.850;12.928;2023-03-21T06:57:11;97987.69;;;8.18
20730;BMP280;10526;50.850;12.928;2023-03-21T07:01:35;97993.44;;;8.45
20730;BMP280;10526;50.850;12.928;2023-03-21T07:06:06;97991.94;;;8.62
20730;BMP280;10526;50.850;12.928;2023-03-21T07:10:31;97994.97;;;8.75
20730;BMP280;10526;50.850;12.928;2023-03-21T07:14:59;97988.13;;;8.74
20730;BMP280;10526;50.850;12.928;2023-03-21T07:19:21;97982.81;;;8.70
20730;BMP280;10526;50.850;12.928;2023-03-21T07:23:44;97987.72;;;9.08
20730;BMP280;10526;50.850;12.928;2023-03-21T07:28:07;97982.75;;;9.27
20730;BMP280;10526;50.850;12.928;2023-03-21T07:32:34;97989.03;;;9.83
20730;BMP280;10526;50.850;12.928;2023-03-21T07:36:56;97983.59;;;10.05
20730;BMP280;10526;50.850;12.928;2023-03-21T07:41:18;97981.50;;;10.82
20730;BMP280;10526;50.850;12.928;2023-03-21T07:45:41;97990.13;;;11.35
20730;BMP280;10526;50.850;12.928;2023-03-21T07:50:03;97981.22;;;12.06
20730;BMP280;10526;50.850;12.928;2023-03-21T07:54:25;97987.66;;;13.22
20730;BMP280;10526;50.850;12.928;2023-03-21T07:58:49;97998.16;;;13.89
20730;BMP280;10526;50.850;12.928;2023-03-21T08:03:11;97998.50;;;13.91
20730;BMP280;10526;50.850;12.928;2023-03-21T08:07:34;98003.22;;;13.27
20730;BMP280;10526;50.850;12.928;2023-03-21T08:11:56;97997.63;;;12.55
20730;BMP280;10526;50.850;12.928;2023-03-21T08:16:18;98002.78;;;12.19
20730;BMP280;10526;50.850;12.928;2023-03-21T08:20:40;98003.50;;;11.96
20730;BMP280;10526;50.850;12.928;2023-03-21T08:25:03;98003.50;;;11.65
20730;BMP280;10526;50.850;12.928;2023-03-21T08:29:26;97990.75;;;11.46
20730;BMP280;10526;50.850;12.928;2023-03-21T08:33:48;97995.00;;;11.43
20730;BMP280;10526;50.850;12.928;2023-03-21T08:38:15;97984.94;;;12.12
20730;BMP280;10526;50.850;12.928;2023-03-21T08:42:39;97996.16;;;12.74
20730;BMP280;10526;50.850;12.928;2023-03-21T08:47:01;98000.00;;;13.56
20730;BMP280;10526;50.850;12.928;2023-03-21T08:51:23;98001.25;;;14.52
20730;BMP280;10526;50.850;12.928;2023-03-21T08:55:45;97990.06;;;16.17
20730;BMP280;10526;50.850;12.928;2023-03-21T09:00:10;97988.06;;;17.61
20730;BMP280;10526;50.850;12.928;2023-03-21T09:04:35;97991.19;;;20.83
20730;BMP280;10526;50.850;12.928;2023-03-21T09:08:58;98000.69;;;23.98
20730;BMP280;10526;50.850;12.928;2023-03-21T09:13:21;98000.31;;;26.16
20730;BMP280;10526;50.850;12.928;2023-03-21T09:17:43;98004.56;;;23.69
20730;BMP280;10526;50.850;12.928;2023-03-21T09:22:13;97990.38;;;22.22
20730;BMP280;10526;50.850;12.928;2023-03-21T09:26:38;97991.28;;;22.66
20730;BMP280;10526;50.850;12.928;2023-03-21T09:31:00;97988.31;;;22.95
20730;BMP280;10526;50.850;12.928;2023-03-21T09:35:23;97972.19;;;21.82
20730;BMP280;10526;50.850;12.928;2023-03-21T09:39:45;97965.47;;;22.24
20730;BMP280;10526;50.850;12.928;2023-03-21T09:49:37;97968.75;;;23.87
20730;BMP280;10526;50.850;12.928;2023-03-21T09:53:52;97967.75;;;23.25
20730;BMP280;10526;50.850;12.928;2023-03-21T09:58:34;97959.81;;;22.53
20730;BMP280;10526;50.850;12.928;2023-03-21T10:03:03;97958.66;;;22.08
20730;BMP280;10526;50.850;12.928;2023-03-21T10:07:39;97951.94;;;21.08
20730;BMP280;10526;50.850;12.928;2023-03-21T10:12:07;97948.34;;;20.37
20730;BMP280;10526;50.850;12.928;2023-03-21T10:16:51;97926.50;;;19.87
20730;BMP280;10526;50.850;12.928;2023-03-21T10:21:26;97933.16;;;20.69
20730;BMP280;10526;50.850;12.928;2023-03-21T10:26:09;97927.53;;;20.43
20730;BMP280;10526;50.850;12.928;2023-03-21T10:31:05;97922.69;;;20.47
20730;BMP280;10526;50.850;12.928;2023-03-21T10:35:28;97925.19;;;20.21
20730;BMP280;10526;50.850;12.928;2023-03-21T10:39:53;97903.03;;;20.96
20730;BMP280;10526;50.850;12.928;2023-03-21T10:44:17;97911.66;;;20.80
20730;BMP280;10526;50.850;12.928;2023-03-21T10:48:42;97913.16;;;20.66
20730;BMP280;10526;50.850;12.928;2023-03-21T10:53:21;97919.84;;;21.36
20730;BMP280;10526;50.850;12.928;2023-03-21T10:57:45;97911.53;;;22.63
20730;BMP280;10526;50.850;12.928;2023-03-21T11:02:23;97914.09;;;23.85
20730;BMP280;10526;50.850;12.928;2023-03-21T11:06:55;97914.59;;;23.89
20730;BMP280;10526;50.850;12.928;2023-03-21T11:11:25;97904.22;;;24.72
20730;BMP280;10526;50.850;12.928;2023-03-21T11:15:57;97905.25;;;24.24
20730;BMP280;10526;50.850;12.928;2023-03-21T11:20:20;97899.75;;;23.90
20730;BMP280;10526;50.850;12.928;2023-03-21T11:24:50;97894.88;;;23.29
20730;BMP280;10526;50.850;12.928;2023-03-21T11:29:37;97885.41;;;22.08
20730;BMP280;10526;50.850;12.928;2023-03-21T11:34:06;97881.03;;;20.74
20730;BMP280;10526;50.850;12.928;2023-03-21T11:38:37;97878.47;;;20.21
20730;BMP280;10526;50.850;12.928;2023-03-21T11:47:23;97871.44;;;21.08
20730;BMP280;10526;50.850;12.928;2023-03-21T11:56:39;97863.25;;;20.67
20730;BMP280;10526;50.850;12.928;2023-03-21T12:05:53;97854.59;;;21.39
20730;BMP280;10526;50.850;12.928;2023-03-21T12:10:56;97852.13;;;20.36
20730;BMP280;10526;50.850;12.928;2023-03-21T12:15:38;97846.25;;;20.52
20730;BMP280;10526;50.850;12.928;2023-03-21T12:20:44;97846.34;;;20.28
20730;BMP280;10526;50.850;12.928;2023-03-21T12:25:31;97833.34;;;20.77
20730;BMP280;10526;50.850;12.928;2023-03-21T12:30:37;97814.56;;;20.88
20730;BMP280;10526;50.850;12.928;2023-03-21T12:35:53;97814.16;;;19.71
20730;BMP280;10526;50.850;12.928;2023-03-21T12:45:40;97803.44;;;20.36
20730;BMP280;10526;50.850;12.928;2023-03-21T12:50:26;97799.91;;;20.59
20730;BMP280;10526;50.850;12.928;2023-03-21T12:55:06;97791.72;;;20.39
20730;BMP280;10526;50.850;12.928;2023-03-21T13:04:44;97786.13;;;19.84
20730;BMP280;10526;50.850;12.928;2023-03-21T13:09:38;97782.63;;;19.54
20730;BMP280;10526;50.850;12.928;2023-03-21T13:23:37;97759.09;;;19.84
20730;BMP280;10526;50.850;12.928;2023-03-21T13:28:04;97762.53;;;19.69
20730;BMP280;10526;50.850;12.928;2023-03-21T13:32:32;97758.81;;;19.52
20730;BMP280;10526;50.850;12.928;2023-03-21T13:36:56;97753.78;;;19.60
20730;BMP280;10526;50.850;12.928;2023-03-21T13:41:29;97753.88;;;19.65
20730;BMP280;10526;50.850;12.928;2023-03-21T13:45:52;97742.97;;;19.60
20730;BMP280;10526;50.850;12.928;2023-03-21T13:54:51;97739.16;;;18.89
20730;BMP280;10526;50.850;12.928;2023-03-21T13:59:41;97738.31;;;18.74
20730;BMP280;10526;50.850;12.928;2023-03-21T14:04:19;97730.13;;;18.68
20730;BMP280;10526;50.850;12.928;2023-03-21T14:08:49;97713.75;;;18.72
20730;BMP280;10526;50.850;12.928;2023-03-21T14:13:16;97719.44;;;18.74
20730;BMP280;10526;50.850;12.928;2023-03-21T14:17:50;97723.09;;;18.86
20730;BMP280;10526;50.850;12.928;2023-03-21T14:22:13;97716.34;;;18.33
20730;BMP280;10526;50.850;12.928;2023-03-21T14:26:41;97715.97;;;18.07
20730;BMP280;10526;50.850;12.928;2023-03-21T14:31:04;97700.81;;;18.10
20730;BMP280;10526;50.850;12.928;2023-03-21T14:35:30;97698.81;;;18.29
20730;BMP280;10526;50.850;12.928;2023-03-21T14:39:58;97687.56;;;17.97
20730;BMP280;10526;50.850;12.928;2023-03-21T14:44:35;97679.19;;;17.86
20730;BMP280;10526;50.850;12.928;2023-03-21T14:49:29;97680.41;;;17.76
20730;BMP280;10526;50.850;12.928;2023-03-21T14:53:51;97681.03;;;17.52
20730;BMP280;10526;50.850;12.928;2023-03-21T14:58:15;97673.59;;;17.38
20730;BMP280;10526;50.850;12.928;2023-03-21T15:02:39;97670.63;;;17.45
20730;BMP280;10526;50.850;12.928;2023-03-21T15:07:02;97674.41;;;17.81
20730;BMP280;10526;50.850;12.928;2023-03-21T15:11:40;97674.72;;;17.83
20730;BMP280;10526;50.850;12.928;2023-03-21T15:16:03;97663.72;;;17.35
20730;BMP280;10526;50.850;12.928;2023-03-21T15:20:28;97659.84;;;16.99
20730;BMP280;10526;50.850;12.928;2023-03-21T15:24:57;97658.16;;;16.84
20730;BMP280;10526;50.850;12.928;2023-03-21T15:29:20;97655.00;;;16.85
20730;BMP280;10526;50.850;12.928;2023-03-21T15:33:46;97655.16;;;16.82
20730;BMP280;10526;50.850;12.928;2023-03-21T15:38:27;97656.19;;;16.75
20730;BMP280;10526;50.850;12.928;2023-03-21T15:42:51;97653.47;;;16.66
20730;BMP280;10526;50.850;12.928;2023-03-21T15:52:12;97641.44;;;16.30
20730;BMP280;10526;50.850;12.928;2023-03-21T15:56:35;97644.69;;;16.16
20730;BMP280;10526;50.850;12.928;2023-03-21T16:01:03;97644.44;;;16.01
20730;BMP280;10526;50.850;12.928;2023-03-21T16:05:32;97633.81;;;15.98
20730;BMP280;10526;50.850;12.928;2023-03-21T16:10:02;97639.19;;;15.89
20730;BMP280;10526;50.850;12.928;2023-03-21T16:14:26;97637.59;;;15.78
20730;BMP280;10526;50.850;12.928;2023-03-21T16:18:48;97638.47;;;15.75
20730;BMP280;10526;50.850;12.928;2023-03-21T16:23:13;97635.94;;;15.72
20730;BMP280;10526;50.850;12.928;2023-03-21T16:27:35;97633.06;;;15.66
20730;BMP280;10526;50.850;12.928;2023-03-21T16:31:57;97639.63;;;15.65
20730;BMP280;10526;50.850;12.928;2023-03-21T16:36:28;97640.63;;;15.59
20730;BMP280;10526;50.850;12.928;2023-03-21T16:40:50;97633.53;;;15.52
20730;BMP280;10526;50.850;12.928;2023-03-21T16:45:12;97642.31;;;15.43
20730;BMP280;10526;50.850;12.928;2023-03-21T16:49:34;97650.59;;;15.36
20730;BMP280;10526;50.850;12.928;2023-03-21T16:53:56;97654.72;;;15.28
20730;BMP280;10526;50.850;12.928;2023-03-21T16:58:18;97654.94;;;15.21
20730;BMP280;10526;50.850;12.928;2023-03-21T17:02:40;97659.16;;;15.09
20730;BMP280;10526;50.850;12.928;2023-03-21T17:07:02;97655.09;;;15.05
20730;BMP280;10526;50.850;12.928;2023-03-21T17:11:26;97655.97;;;14.89
20730;BMP280;10526;50.850;12.928;2023-03-21T17:15:51;97653.19;;;14.80
20730;BMP280;10526;50.850;12.928;2023-03-21T17:20:22;97654.81;;;14.64
20730;BMP280;10526;50.850;12.928;2023-03-21T17:24:45;97660.19;;;14.52
20730;BMP280;10526;50.850;12.928;2023-03-21T17:29:13;97653.66;;;14.40
20730;BMP280;10526;50.850;12.928;2023-03-21T17:33:35;97654.69;;;14.30
20730;BMP280;10526;50.850;12.928;2023-03-21T17:37:57;97665.31;;;14.21
20730;BMP280;10526;50.850;12.928;2023-03-21T17:42:19;97656.84;;;14.10
20730;BMP280;10526;50.850;12.928;2023-03-21T17:46:41;97660.44;;;13.90
20730;BMP280;10526;50.850;12.928;2023-03-21T17:51:04;97658.84;;;13.64
20730;BMP280;10526;50.850;12.928;2023-03-21T17:55:26;97661.41;;;13.38
20730;BMP280;10526;50.850;12.928;2023-03-21T17:59:47;97663.78;;;13.20
20730;BMP280;10526;50.850;12.928;2023-03-21T18:04:10;97672.16;;;13.06
20730;BMP280;10526;50.850;12.928;2023-03-21T18:08:32;97669.38;;;12.93
20730;BMP280;10526;50.850;12.928;2023-03-21T18:12:54;97666.94;;;12.82
20730;BMP280;10526;50.850;12.928;2023-03-21T18:17:18;97665.59;;;12.74
20730;BMP280;10526;50.850;12.928;2023-03-21T18:21:42;97673.78;;;12.67
20730;BMP280;10526;50.850;12.928;2023-03-21T18:26:08;97666.66;;;12.60
20730;BMP280;10526;50.850;12.928;2023-03-21T18:30:30;97667.13;;;12.59
20730;BMP280;10526;50.850;12.928;2023-03-21T18:35:15;97668.31;;;12.54
20730;BMP280;10526;50.850;12.928;2023-03-21T18:39:37;97679.09;;;12.51
20730;BMP280;10526;50.850;12.928;2023-03-21T18:43:59;97676.91;;;12.46
20730;BMP280;10526;50.850;12.928;2023-03-21T18:48:38;97673.56;;;12.42
20730;BMP280;10526;50.850;12.928;2023-03-21T18:52:59;97680.41;;;12.43
20730;BMP280;10526;50.850;12.928;2023-03-21T18:57:21;97674.31;;;12.42
20730;BMP280;10526;50.850;12.928;2023-03-21T19:02:01;97676.59;;;12.44
20730;BMP280;10526;50.850;12.928;2023-03-21T19:06:24;97676.22;;;12.42
20730;BMP280;10526;50.850;12.928;2023-03-21T19:10:46;97674.72;;;12.41
20730;BMP280;10526;50.850;12.928;2023-03-21T19:15:10;97688.47;;;12.39
20730;BMP280;10526;50.850;12.928;2023-03-21T19:19:32;97679.41;;;12.37
20730;BMP280;10526;50.850;12.928;2023-03-21T19:23:54;97677.88;;;12.35
20730;BMP280;10526;50.850;12.928;2023-03-21T19:28:37;97683.22;;;12.35
20730;BMP280;10526;50.850;12.928;2023-03-21T19:32:58;97684.88;;;12.29
20730;BMP280;10526;50.850;12.928;2023-03-21T19:37:20;97685.69;;;12.26
20730;BMP280;10526;50.850;12.928;2023-03-21T19:41:42;97681.19;;;12.23
20730;BMP280;10526;50.850;12.928;2023-03-21T19:46:04;97677.25;;;12.28
20730;BMP280;10526;50.850;12.928;2023-03-21T19:50:27;97681.72;;;12.34
20730;BMP280;10526;50.850;12.928;2023-03-21T19:55:12;97683.13;;;12.39
20730;BMP280;10526;50.850;12.928;2023-03-21T19:59:36;97681.56;;;12.42
20730;BMP280;10526;50.850;12.928;2023-03-21T20:04:01;97675.81;;;12.43
20730;BMP280;10526;50.850;12.928;2023-03-21T20:08:23;97680.75;;;12.45
20730;BMP280;10526;50.850;12.928;2023-03-21T20:12:46;97683.44;;;12.45
20730;BMP280;10526;50.850;12.928;2023-03-21T20:17:07;97679.59;;;12.46
20730;BMP280;10526;50.850;12.928;2023-03-21T20:21:29;97685.25;;;12.48
20730;BMP280;10526;50.850;12.928;2023-03-21T20:26:10;97685.75;;;12.43
20730;BMP280;10526;50.850;12.928;2023-03-21T20:30:32;97691.50;;;12.41
20730;BMP280;10526;50.850;12.928;2023-03-21T20:34:54;97690.75;;;12.41
20730;BMP280;10526;50.850;12.928;2023-03-21T20:39:36;97704.03;;;12.44
20730;BMP280;10526;50.850;12.928;2023-03-21T20:43:58;97699.16;;;12.39
20730;BMP280;10526;50.850;12.928;2023-03-21T20:48:41;97692.13;;;12.29
20730;BMP280;10526;50.850;12.928;2023-03-21T20:53:03;97690.41;;;12.19
20730;BMP280;10526;50.850;12.928;2023-03-21T20:57:28;97692.47;;;12.11
20730;BMP280;10526;50.850;12.928;2023-03-21T21:01:50;97695.25;;;12.04
20730;BMP280;10526;50.850;12.928;2023-03-21T21:06:19;97694.25;;;11.98
20730;BMP280;10526;50.850;12.928;2023-03-21T21:10:42;97692.81;;;11.93
20730;BMP280;10526;50.850;12.928;2023-03-21T21:15:25;97698.56;;;11.92
20730;BMP280;10526;50.850;12.928;2023-03-21T21:19:47;97691.03;;;11.87
20730;BMP280;10526;50.850;12.928;2023-03-21T21:24:12;97694.09;;;11.85
20730;BMP280;10526;50.850;12.928;2023-03-21T21:28:35;97694.22;;;11.78
20730;BMP280;10526;50.850;12.928;2023-03-21T21:32:59;97700.38;;;11.75
20730;BMP280;10526;50.850;12.928;2023-03-21T21:37:22;97704.63;;;11.72
20730;BMP280;10526;50.850;12.928;2023-03-21T21:41:43;97707.00;;;11.67
20730;BMP280;10526;50.850;12.928;2023-03-21T21:46:05;97704.88;;;11.58
20730;BMP280;10526;50.850;12.928;2023-03-21T21:50:28;97704.53;;;11.56
20730;BMP280;10526;50.850;12.928;2023-03-21T21:54:50;97706.91;;;11.50
20730;BMP280;10526;50.850;12.928;2023-03-21T21:59:12;97703.94;;;11.45
20730;BMP280;10526;50.850;12.928;2023-03-21T22:03:37;97711.59;;;11.43
20730;BMP280;10526;50.850;12.928;2023-03-21T22:08:01;97705.63;;;11.35
20730;BMP280;10526;50.850;12.928;2023-03-21T22:12:24;97703.47;;;11.27
20730;BMP280;10526;50.850;12.928;2023-03-21T22:16:46;97704.25;;;11.23
20730;BMP280;10526;50.850;12.928;2023-03-21T22:21:09;97699.41;;;11.18
20730;BMP280;10526;50.850;12.928;2023-03-21T22:25:31;97693.06;;;11.09
20730;BMP280;10526;50.850;12.928;2023-03-21T22:29:56;97690.16;;;11.00
20730;BMP280;10526;50.850;12.928;2023-03-21T22:34:18;97698.66;;;10.91
20730;BMP280;10526;50.850;12.928;2023-03-21T22:38:39;97696.44;;;10.86
20730;BMP280;10526;50.850;12.928;2023-03-21T22:43:02;97696.19;;;10.77
20730;BMP280;10526;50.850;12.928;2023-03-21T22:47:24;97691.69;;;10.70
20730;BMP280;10526;50.850;12.928;2023-03-21T22:51:46;97686.78;;;10.69
20730;BMP280;10526;50.850;12.928;2023-03-21T22:56:09;97681.84;;;10.67
20730;BMP280;10526;50.850;12.928;2023-03-21T23:00:31;97683.84;;;10.59
20730;BMP280;10526;50.850;12.928;2023-03-21T23:04:53;97689.25;;;10.56
20730;BMP280;10526;50.850;12.928;2023-03-21T23:09:16;97680.16;;;10.50
20730;BMP280;10526;50.850;12.928;2023-03-21T23:13:38;97677.94;;;10.48
20730;BMP280;10526;50.850;12.928;2023-03-21T23:18:02;97673.75;;;10.47
20730;BMP280;10526;50.850;12.928;2023-03-21T23:22:23;97678.72;;;10.45
20730;BMP280;10526;50.850;12.928;2023-03-21T23:26:45;97671.09;;;10.44
20730;BMP280;10526;50.850;12.928;2023-03-21T23:31:13;97674.94;;;10.43
20730;BMP280;10526;50.850;12.928;2023-03-21T23:35:35;97666.59;;;10.41
20730;BMP280;10526;50.850;12.928;2023-03-21T23:39:59;97662.94;;;10.27
20730;BMP280;10526;50.850;12.928;2023-03-21T23:44:21;97663.13;;;10.09
20730;BMP280;10526;50.850;12.928;2023-03-21T23:48:44;97662.09;;;10.00
20730;BMP280;10526;50.850;12.928;2023-03-21T23:53:06;97659.84;;;9.98
20730;BMP280;10526;50.850;12.928;2023-03-21T23:57:28;97658.78;;;9.92
